Sainte Genevieve, Missouri
Current Conditions -  °F | °C
As of 11:55 PM on Thursday 30 Oct 2014 (Local Time) from KSAR Reporting Station
Broken Clouds Broken Clouds  
Wind Chill: 48°   Ceiling: 5000
Heat Index: 48°   Visibility: 10mi
Dew Point: 47°   Wind: 0mph
Humidity: 97%   Direction: NA
Pressure: 30.04"   Gusts: NA
Location:  37.98°N, 90.04°W
Report Text: KSAR 310455Z AUTO 00000KT 10SM BKN050 BKN090 09/09 A3004 RMK AO2 T00900085
Loading
Personal Weather Stations






























Interactive Weather Map
Tropical Storm Tracking
New forecast layout! Learn more

10-Day Weather Forecast

Advertisements
Track Severe Weather on mobile